sensor_id;sensor_type;location;lat;lon;timestamp;temperature;humidity
38239;DHT22;24035;48.900;9.188;2023-06-01T00:00:18;14.00;99.90
38239;DHT22;24035;48.900;9.188;2023-06-01T00:02:44;14.00;99.90
38239;DHT22;24035;48.900;9.188;2023-06-01T00:05:10;13.90;99.90
38239;DHT22;24035;48.900;9.188;2023-06-01T00:07:36;13.90;99.90
38239;DHT22;24035;48.900;9.188;2023-06-01T00:10:02;13.80;99.90
38239;DHT22;24035;48.900;9.188;2023-06-01T00:12:28;13.80;99.90
38239;DHT22;24035;48.900;9.188;2023-06-01T00:14:54;13.70;99.90
38239;DHT22;24035;48.900;9.188;2023-06-01T00:17:20;13.60;99.90
38239;DHT22;24035;48.900;9.188;2023-06-01T00:19:48;13.60;99.90
38239;DHT22;24035;48.900;9.188;2023-06-01T00:22:14;13.50;99.90
38239;DHT22;24035;48.900;9.188;2023-06-01T00:24:41;13.40;99.90
38239;DHT22;24035;48.900;9.188;2023-06-01T00:27:06;13.40;99.90
38239;DHT22;24035;48.900;9.188;2023-06-01T00:29:33;13.40;99.90
38239;DHT22;24035;48.900;9.188;2023-06-01T00:31:59;13.40;99.90
38239;DHT22;24035;48.900;9.188;2023-06-01T00:34:24;13.40;99.90
38239;DHT22;24035;48.900;9.188;2023-06-01T00:36:50;13.40;99.90
38239;DHT22;24035;48.900;9.188;2023-06-01T00:39:16;13.30;99.90
38239;DHT22;24035;48.900;9.188;2023-06-01T00:41:41;13.20;99.90
38239;DHT22;24035;48.900;9.188;2023-06-01T00:44:07;13.30;1.00
38239;DHT22;24035;48.900;9.188;2023-06-01T00:46:33;13.10;1.00
38239;DHT22;24035;48.900;9.188;2023-06-01T00:48:59;13.20;1.00
38239;DHT22;24035;48.900;9.188;2023-06-01T00:51:26;13.10;1.00
38239;DHT22;24035;48.900;9.188;2023-06-01T00:53:52;13.00;1.00
38239;DHT22;24035;48.900;9.188;2023-06-01T00:56:18;13.00;1.00
38239;DHT22;24035;48.900;9.188;2023-06-01T00:58:44;12.90;1.00
38239;DHT22;24035;48.900;9.188;2023-06-01T01:01:10;12.90;1.00
38239;DHT22;24035;48.900;9.188;2023-06-01T01:03:48;12.80;1.00
38239;DHT22;24035;48.900;9.188;2023-06-01T01:06:30;12.70;1.00
38239;DHT22;24035;48.900;9.188;2023-06-01T01:09:22;12.90;1.00
38239;DHT22;24035;48.900;9.188;2023-06-01T01:12:17;12.80;1.00
38239;DHT22;24035;48.900;9.188;2023-06-01T01:14:59;12.70;1.00
38239;DHT22;24035;48.900;9.188;2023-06-01T01:17:40;12.70;1.00
38239;DHT22;24035;48.900;9.188;2023-06-01T01:20:12;12.70;1.00
38239;DHT22;24035;48.900;9.188;2023-06-01T01:23:06;12.70;1.00
38239;DHT22;24035;48.900;9.188;2023-06-01T01:31:02;12.50;1.00
38239;DHT22;24035;48.900;9.188;2023-06-01T01:33:29;12.40;1.00
38239;DHT22;24035;48.900;9.188;2023-06-01T01:35:56;12.40;1.00
38239;DHT22;24035;48.900;9.188;2023-06-01T01:38:22;12.40;1.00
38239;DHT22;24035;48.900;9.188;2023-06-01T01:40:48;12.40;1.00
38239;DHT22;24035;48.900;9.188;2023-06-01T01:43:21;12.40;1.00
38239;DHT22;24035;48.900;9.188;2023-06-01T01:45:52;12.40;1.00
38239;DHT22;24035;48.900;9.188;2023-06-01T01:48:23;12.40;1.00
38239;DHT22;24035;48.900;9.188;2023-06-01T01:51:00;12.30;1.00
38239;DHT22;24035;48.900;9.188;2023-06-01T01:53:27;12.30;1.00
38239;DHT22;24035;48.900;9.188;2023-06-01T01:55:53;12.30;1.00
38239;DHT22;24035;48.900;9.188;2023-06-01T01:58:21;12.20;1.00
38239;DHT22;24035;48.900;9.188;2023-06-01T02:00:47;12.20;1.00
38239;DHT22;24035;48.900;9.188;2023-06-01T02:03:17;12.20;1.00
38239;DHT22;24035;48.900;9.188;2023-06-01T02:05:43;12.10;1.00
38239;DHT22;24035;48.900;9.188;2023-06-01T02:08:10;12.10;1.00
38239;DHT22;24035;48.900;9.188;2023-06-01T02:10:37;12.10;1.00
38239;DHT22;24035;48.900;9.188;2023-06-01T02:13:03;12.20;1.00
38239;DHT22;24035;48.900;9.188;2023-06-01T02:15:29;12.20;1.00
38239;DHT22;24035;48.900;9.188;2023-06-01T02:17:54;12.30;1.00
38239;DHT22;24035;48.900;9.188;2023-06-01T02:20:20;12.30;1.00
38239;DHT22;24035;48.900;9.188;2023-06-01T02:22:46;12.30;1.00
38239;DHT22;24035;48.900;9.188;2023-06-01T02:25:11;12.30;1.00
38239;DHT22;24035;48.900;9.188;2023-06-01T02:27:37;12.30;1.00
38239;DHT22;24035;48.900;9.188;2023-06-01T02:30:03;12.30;1.00
38239;DHT22;24035;48.900;9.188;2023-06-01T02:32:32;12.20;1.00
38239;DHT22;24035;48.900;9.188;2023-06-01T02:34:58;12.20;1.00
38239;DHT22;24035;48.900;9.188;2023-06-01T02:37:24;12.10;1.00
38239;DHT22;24035;48.900;9.188;2023-06-01T02:39:50;11.90;1.00
38239;DHT22;24035;48.900;9.188;2023-06-01T02:42:15;11.80;4.70
38239;DHT22;24035;48.900;9.188;2023-06-01T02:44:41;11.80;48.70
38239;DHT22;24035;48.900;9.188;2023-06-01T02:47:07;11.80;51.10
38239;DHT22;24035;48.900;9.188;2023-06-01T02:49:33;11.80;64.20
38239;DHT22;24035;48.900;9.188;2023-06-01T02:51:58;11.80;57.50
38239;DHT22;24035;48.900;9.188;2023-06-01T02:54:24;11.70;99.90
38239;DHT22;24035;48.900;9.188;2023-06-01T02:56:50;11.60;90.10
38239;DHT22;24035;48.900;9.188;2023-06-01T02:59:15;11.70;99.90
38239;DHT22;24035;48.900;9.188;2023-06-01T03:01:41;11.70;56.30
38239;DHT22;24035;48.900;9.188;2023-06-01T03:04:07;11.70;46.80
38239;DHT22;24035;48.900;9.188;2023-06-01T03:06:33;11.60;99.90
38239;DHT22;24035;48.900;9.188;2023-06-01T03:09:03;11.80;73.20
38239;DHT22;24035;48.900;9.188;2023-06-01T03:11:29;11.90;84.20
38239;DHT22;24035;48.900;9.188;2023-06-01T03:13:55;11.90;35.30
38239;DHT22;24035;48.900;9.188;2023-06-01T03:16:23;11.90;8.80
38239;DHT22;24035;48.900;9.188;2023-06-01T03:18:48;11.80;1.00
38239;DHT22;24035;48.900;9.188;2023-06-01T03:21:14;11.80;89.80
38239;DHT22;24035;48.900;9.188;2023-06-01T03:23:42;11.70;91.50
38239;DHT22;24035;48.900;9.188;2023-06-01T03:26:12;11.80;99.90
38239;DHT22;24035;48.900;9.188;2023-06-01T03:28:38;11.80;99.90
38239;DHT22;24035;48.900;9.188;2023-06-01T03:31:04;11.70;93.50
38239;DHT22;24035;48.900;9.188;2023-06-01T03:33:30;11.80;99.90
38239;DHT22;24035;48.900;9.188;2023-06-01T03:35:56;11.70;99.90
38239;DHT22;24035;48.900;9.188;2023-06-01T03:38:22;11.80;99.90
38239;DHT22;24035;48.900;9.188;2023-06-01T03:40:47;11.90;99.90
38239;DHT22;24035;48.900;9.188;2023-06-01T03:43:13;11.90;83.50
38239;DHT22;24035;48.900;9.188;2023-06-01T03:45:39;12.10;11.10
38239;DHT22;24035;48.900;9.188;2023-06-01T03:48:05;12.20;1.00
38239;DHT22;24035;48.900;9.188;2023-06-01T03:50:30;12.20;1.00
38239;DHT22;24035;48.900;9.188;2023-06-01T03:52:56;12.40;1.00
38239;DHT22;24035;48.900;9.188;2023-06-01T03:55:22;12.60;1.00
38239;DHT22;24035;48.900;9.188;2023-06-01T03:57:48;12.90;1.00
38239;DHT22;24035;48.900;9.188;2023-06-01T04:00:14;13.20;1.00
38239;DHT22;24035;48.900;9.188;2023-06-01T04:02:51;13.70;1.00
38239;DHT22;24035;48.900;9.188;2023-06-01T04:05:18;14.30;1.00
38239;DHT22;24035;48.900;9.188;2023-06-01T04:07:45;14.70;1.00
38239;DHT22;24035;48.900;9.188;2023-06-01T04:10:12;15.20;1.00
38239;DHT22;24035;48.900;9.188;2023-06-01T04:12:40;15.40;99.90
38239;DHT22;24035;48.900;9.188;2023-06-01T04:15:07;15.70;99.90
38239;DHT22;24035;48.900;9.188;2023-06-01T04:17:36;16.10;99.90
38239;DHT22;24035;48.900;9.188;2023-06-01T04:20:02;16.40;99.90
38239;DHT22;24035;48.900;9.188;2023-06-01T04:22:32;16.80;99.90
38239;DHT22;24035;48.900;9.188;2023-06-01T04:24:58;17.30;99.90
38239;DHT22;24035;48.900;9.188;2023-06-01T04:27:23;17.60;99.90
38239;DHT22;24035;48.900;9.188;2023-06-01T04:29:50;17.80;99.90
38239;DHT22;24035;48.900;9.188;2023-06-01T04:32:17;18.00;99.90
38239;DHT22;24035;48.900;9.188;2023-06-01T04:34:50;18.00;99.90
38239;DHT22;24035;48.900;9.188;2023-06-01T04:37:17;17.90;99.90
38239;DHT22;24035;48.900;9.188;2023-06-01T04:39:49;17.90;99.90
38239;DHT22;24035;48.900;9.188;2023-06-01T04:42:17;17.90;99.90
38239;DHT22;24035;48.900;9.188;2023-06-01T04:44:44;17.60;99.90
38239;DHT22;24035;48.900;9.188;2023-06-01T04:47:18;17.50;99.90
38239;DHT22;24035;48.900;9.188;2023-06-01T04:49:46;17.50;99.90
38239;DHT22;24035;48.900;9.188;2023-06-01T04:52:12;18.00;99.90
38239;DHT22;24035;48.900;9.188;2023-06-01T04:54:38;18.30;99.90
38239;DHT22;24035;48.900;9.188;2023-06-01T04:57:04;18.90;99.90
38239;DHT22;24035;48.900;9.188;2023-06-01T04:59:32;19.70;99.90
38239;DHT22;24035;48.900;9.188;2023-06-01T05:01:58;20.20;99.90
38239;DHT22;24035;48.900;9.188;2023-06-01T05:04:24;20.90;99.90
38239;DHT22;24035;48.900;9.188;2023-06-01T05:06:49;20.50;99.90
38239;DHT22;24035;48.900;9.188;2023-06-01T05:09:16;20.80;99.90
38239;DHT22;24035;48.900;9.188;2023-06-01T05:11:43;20.70;99.90
38239;DHT22;24035;48.900;9.188;2023-06-01T05:14:09;20.90;99.90
38239;DHT22;24035;48.900;9.188;2023-06-01T05:16:35;21.50;99.90
38239;DHT22;24035;48.900;9.188;2023-06-01T05:19:01;22.30;99.90
38239;DHT22;24035;48.900;9.188;2023-06-01T05:21:27;22.80;99.90
38239;DHT22;24035;48.900;9.188;2023-06-01T05:23:53;22.30;99.90
38239;DHT22;24035;48.900;9.188;2023-06-01T05:26:19;22.10;99.90
38239;DHT22;24035;48.900;9.188;2023-06-01T05:28:47;22.90;99.90
38239;DHT22;24035;48.900;9.188;2023-06-01T05:31:13;22.40;99.90
38239;DHT22;24035;48.900;9.188;2023-06-01T05:33:38;22.60;99.90
38239;DHT22;24035;48.900;9.188;2023-06-01T05:36:04;22.70;99.90
38239;DHT22;24035;48.900;9.188;2023-06-01T05:38:30;23.20;99.90
38239;DHT22;24035;48.900;9.188;2023-06-01T05:40:56;23.50;99.90
38239;DHT22;24035;48.900;9.188;2023-06-01T05:43:21;23.30;99.90
38239;DHT22;24035;48.900;9.188;2023-06-01T05:45:47;22.90;99.90
38239;DHT22;24035;48.900;9.188;2023-06-01T05:48:14;21.50;99.90
38239;DHT22;24035;48.900;9.188;2023-06-01T05:50:41;21.50;99.90
38239;DHT22;24035;48.900;9.188;2023-06-01T05:53:08;20.80;99.90
38239;DHT22;24035;48.900;9.188;2023-06-01T05:55:33;20.30;99.90
38239;DHT22;24035;48.900;9.188;2023-06-01T05:57:59;20.50;99.90
38239;DHT22;24035;48.900;9.188;2023-06-01T06:00:25;20.50;99.90
38239;DHT22;24035;48.900;9.188;2023-06-01T06:02:50;20.40;99.90
38239;DHT22;24035;48.900;9.188;2023-06-01T06:05:16;20.30;99.90
38239;DHT22;24035;48.900;9.188;2023-06-01T06:07:42;20.90;99.90
38239;DHT22;24035;48.900;9.188;2023-06-01T06:10:08;21.00;99.90
38239;DHT22;24035;48.900;9.188;2023-06-01T06:12:34;20.80;99.90
38239;DHT22;24035;48.900;9.188;2023-06-01T06:14:59;21.70;99.90
38239;DHT22;24035;48.900;9.188;2023-06-01T06:17:25;21.60;99.90
38239;DHT22;24035;48.900;9.188;2023-06-01T06:19:51;22.30;99.90
38239;DHT22;24035;48.900;9.188;2023-06-01T06:22:17;22.80;99.90
38239;DHT22;24035;48.900;9.188;2023-06-01T06:24:42;23.80;99.90
38239;DHT22;24035;48.900;9.188;2023-06-01T06:27:11;24.10;99.90
38239;DHT22;24035;48.900;9.188;2023-06-01T06:29:37;25.30;99.90
38239;DHT22;24035;48.900;9.188;2023-06-01T06:32:03;25.50;99.90
38239;DHT22;24035;48.900;9.188;2023-06-01T06:34:29;26.10;99.90
38239;DHT22;24035;48.900;9.188;2023-06-01T06:37:07;26.30;99.90
38239;DHT22;24035;48.900;9.188;2023-06-01T06:39:33;27.20;99.90
38239;DHT22;24035;48.900;9.188;2023-06-01T06:42:00;26.50;99.90
38239;DHT22;24035;48.900;9.188;2023-06-01T06:44:27;26.20;99.90
38239;DHT22;24035;48.900;9.188;2023-06-01T06:46:53;27.30;99.90
38239;DHT22;24035;48.900;9.188;2023-06-01T06:49:19;26.50;99.90
38239;DHT22;24035;48.900;9.188;2023-06-01T06:51:45;26.40;99.90
38239;DHT22;24035;48.900;9.188;2023-06-01T06:54:11;27.30;99.90
38239;DHT22;24035;48.900;9.188;2023-06-01T06:56:37;28.30;99.90
38239;DHT22;24035;48.900;9.188;2023-06-01T06:59:03;28.90;99.90
38239;DHT22;24035;48.900;9.188;2023-06-01T07:01:29;27.80;99.90
38239;DHT22;24035;48.900;9.188;2023-06-01T07:03:54;27.90;99.90
38239;DHT22;24035;48.900;9.188;2023-06-01T07:06:21;28.00;99.90
38239;DHT22;24035;48.900;9.188;2023-06-01T07:08:48;28.30;99.90
38239;DHT22;24035;48.900;9.188;2023-06-01T07:11:15;27.80;99.90
38239;DHT22;24035;48.900;9.188;2023-06-01T07:13:41;28.20;99.90
38239;DHT22;24035;48.900;9.188;2023-06-01T07:16:06;27.80;99.90
38239;DHT22;24035;48.900;9.188;2023-06-01T07:18:32;27.80;99.90
38239;DHT22;24035;48.900;9.188;2023-06-01T07:20:58;28.20;99.90
38239;DHT22;24035;48.900;9.188;2023-06-01T07:23:24;27.80;99.90
38239;DHT22;24035;48.900;9.188;2023-06-01T07:25:50;27.70;99.90
38239;DHT22;24035;48.900;9.188;2023-06-01T07:28:17;27.60;99.90
38239;DHT22;24035;48.900;9.188;2023-06-01T07:30:43;28.40;99.90
38239;DHT22;24035;48.900;9.188;2023-06-01T07:33:09;28.00;99.90
38239;DHT22;24035;48.900;9.188;2023-06-01T07:35:35;27.90;99.90
38239;DHT22;24035;48.900;9.188;2023-06-01T07:38:01;26.40;99.90
38239;DHT22;24035;48.900;9.188;2023-06-01T07:40:29;25.20;99.90
38239;DHT22;24035;48.900;9.188;2023-06-01T07:42:57;25.30;99.90
38239;DHT22;24035;48.900;9.188;2023-06-01T07:45:23;26.60;99.90
38239;DHT22;24035;48.900;9.188;2023-06-01T07:47:49;27.00;99.90
38239;DHT22;24035;48.900;9.188;2023-06-01T07:50:15;27.90;99.90
38239;DHT22;24035;48.900;9.188;2023-06-01T07:52:41;28.40;99.90
38239;DHT22;24035;48.900;9.188;2023-06-01T07:55:07;27.60;99.90
38239;DHT22;24035;48.900;9.188;2023-06-01T07:57:35;27.20;99.90
38239;DHT22;24035;48.900;9.188;2023-06-01T08:00:01;26.40;99.90
38239;DHT22;24035;48.900;9.188;2023-06-01T08:02:28;26.90;99.90
38239;DHT22;24035;48.900;9.188;2023-06-01T08:04:54;26.90;99.90
38239;DHT22;24035;48.900;9.188;2023-06-01T08:07:22;27.50;99.90
38239;DHT22;24035;48.900;9.188;2023-06-01T08:09:48;28.20;99.90
38239;DHT22;24035;48.900;9.188;2023-06-01T08:12:14;29.50;99.90
38239;DHT22;24035;48.900;9.188;2023-06-01T08:14:40;29.50;99.90
38239;DHT22;24035;48.900;9.188;2023-06-01T08:17:06;29.00;99.90
38239;DHT22;24035;48.900;9.188;2023-06-01T08:19:33;28.20;99.90
38239;DHT22;24035;48.900;9.188;2023-06-01T08:21:59;27.90;99.90
38239;DHT22;24035;48.900;9.188;2023-06-01T08:24:25;27.30;99.90
38239;DHT22;24035;48.900;9.188;2023-06-01T08:26:54;26.10;99.90
38239;DHT22;24035;48.900;9.188;2023-06-01T08:29:21;26.20;99.90
38239;DHT22;24035;48.900;9.188;2023-06-01T08:31:47;27.20;99.90
38239;DHT22;24035;48.900;9.188;2023-06-01T08:34:13;28.40;99.90
38239;DHT22;24035;48.900;9.188;2023-06-01T08:36:38;28.70;99.90
38239;DHT22;24035;48.900;9.188;2023-06-01T08:39:20;28.80;99.90
38239;DHT22;24035;48.900;9.188;2023-06-01T08:42:11;28.30;99.90
38239;DHT22;24035;48.900;9.188;2023-06-01T08:44:40;28.50;99.90
38239;DHT22;24035;48.900;9.188;2023-06-01T08:47:06;28.70;99.90
38239;DHT22;24035;48.900;9.188;2023-06-01T08:49:34;28.70;99.90
38239;DHT22;24035;48.900;9.188;2023-06-01T08:52:08;28.90;99.90
38239;DHT22;24035;48.900;9.188;2023-06-01T08:54:36;29.30;99.90
38239;DHT22;24035;48.900;9.188;2023-06-01T08:57:07;29.80;99.90
38239;DHT22;24035;48.900;9.188;2023-06-01T08:59:36;29.00;99.90
38239;DHT22;24035;48.900;9.188;2023-06-01T09:02:02;28.90;99.90
38239;DHT22;24035;48.900;9.188;2023-06-01T09:04:28;28.40;99.90
38239;DHT22;24035;48.900;9.188;2023-06-01T09:06:59;28.40;99.90
38239;DHT22;24035;48.900;9.188;2023-06-01T09:09:24;27.90;99.90
38239;DHT22;24035;48.900;9.188;2023-06-01T09:12:22;28.00;99.90
38239;DHT22;24035;48.900;9.188;2023-06-01T09:14:50;28.10;99.90
38239;DHT22;24035;48.900;9.188;2023-06-01T09:17:21;28.30;99.90
38239;DHT22;24035;48.900;9.188;2023-06-01T09:19:47;28.30;99.90
38239;DHT22;24035;48.900;9.188;2023-06-01T09:22:13;28.70;99.90
38239;DHT22;24035;48.900;9.188;2023-06-01T09:24:39;29.20;99.90
38239;DHT22;24035;48.900;9.188;2023-06-01T09:27:07;29.50;99.90
38239;DHT22;24035;48.900;9.188;2023-06-01T09:29:33;29.60;99.90
38239;DHT22;24035;48.900;9.188;2023-06-01T09:32:02;28.90;99.90
38239;DHT22;24035;48.900;9.188;2023-06-01T09:34:28;27.20;99.90
38239;DHT22;24035;48.900;9.188;2023-06-01T09:36:55;26.80;99.90
38239;DHT22;24035;48.900;9.188;2023-06-01T09:39:22;27.20;99.90
38239;DHT22;24035;48.900;9.188;2023-06-01T09:41:56;27.30;99.90
38239;DHT22;24035;48.900;9.188;2023-06-01T09:44:38;26.60;99.90
38239;DHT22;24035;48.900;9.188;2023-06-01T09:47:05;26.50;99.90
38239;DHT22;24035;48.900;9.188;2023-06-01T09:49:35;26.30;99.90
38239;DHT22;24035;48.900;9.188;2023-06-01T09:54:33;27.60;99.90
38239;DHT22;24035;48.900;9.188;2023-06-01T09:57:00;26.90;99.90
38239;DHT22;24035;48.900;9.188;2023-06-01T09:59:28;26.50;99.90
38239;DHT22;24035;48.900;9.188;2023-06-01T10:01:58;26.20;99.90
38239;DHT22;24035;48.900;9.188;2023-06-01T10:04:28;25.60;99.90
38239;DHT22;24035;48.900;9.188;2023-06-01T10:06:55;25.50;99.90
38239;DHT22;24035;48.900;9.188;2023-06-01T10:09:22;25.60;99.90
38239;DHT22;24035;48.900;9.188;2023-06-01T10:11:51;26.30;99.90
38239;DHT22;24035;48.900;9.188;2023-06-01T10:14:24;27.40;99.90
38239;DHT22;24035;48.900;9.188;2023-06-01T10:16:51;28.20;99.90
38239;DHT22;24035;48.900;9.188;2023-06-01T10:19:19;28.50;99.90
38239;DHT22;24035;48.900;9.188;2023-06-01T10:21:46;28.80;99.90
38239;DHT22;24035;48.900;9.188;2023-06-01T10:24:13;29.00;99.90
38239;DHT22;24035;48.900;9.188;2023-06-01T10:27:29;29.50;99.90
38239;DHT22;24035;48.900;9.188;2023-06-01T10:29:30;29.90;99.90
38239;DHT22;24035;48.900;9.188;2023-06-01T10:31:56;29.10;99.90
38239;DHT22;24035;48.900;9.188;2023-06-01T10:34:43;28.40;99.90
38239;DHT22;24035;48.900;9.188;2023-06-01T10:37:16;27.80;99.90
38239;DHT22;24035;48.900;9.188;2023-06-01T10:39:42;28.40;99.90
38239;DHT22;24035;48.900;9.188;2023-06-01T10:47:49;29.50;99.90
38239;DHT22;24035;48.900;9.188;2023-06-01T10:57:41;28.40;99.90
38239;DHT22;24035;48.900;9.188;2023-06-01T11:00:20;28.20;99.90
38239;DHT22;24035;48.900;9.188;2023-06-01T11:05:51;28.00;99.90
38239;DHT22;24035;48.900;9.188;2023-06-01T11:18:49;28.30;99.90
38239;DHT22;24035;48.900;9.188;2023-06-01T11:21:20;28.10;99.90
38239;DHT22;24035;48.900;9.188;2023-06-01T11:23:53;28.20;99.90
38239;DHT22;24035;48.900;9.188;2023-06-01T11:26:21;27.80;99.90
38239;DHT22;24035;48.900;9.188;2023-06-01T11:28:48;27.30;99.90
38239;DHT22;24035;48.900;9.188;2023-06-01T11:31:18;26.70;99.90
38239;DHT22;24035;48.900;9.188;2023-06-01T11:33:50;26.90;99.90
38239;DHT22;24035;48.900;9.188;2023-06-01T11:36:25;27.70;99.90
38239;DHT22;24035;48.900;9.188;2023-06-01T11:38:53;28.50;99.90
38239;DHT22;24035;48.900;9.188;2023-06-01T11:41:20;27.50;99.90
38239;DHT22;24035;48.900;9.188;2023-06-01T11:43:57;27.30;99.90
38239;DHT22;24035;48.900;9.188;2023-06-01T11:46:24;27.30;99.90
38239;DHT22;24035;48.900;9.188;2023-06-01T11:49:03;27.50;99.90
38239;DHT22;24035;48.900;9.188;2023-06-01T11:51:36;27.60;99.90
38239;DHT22;24035;48.900;9.188;2023-06-01T11:54:03;27.10;99.90
38239;DHT22;24035;48.900;9.188;2023-06-01T11:56:33;27.50;99.90
38239;DHT22;24035;48.900;9.188;2023-06-01T11:59:02;27.70;99.90
38239;DHT22;24035;48.900;9.188;2023-06-01T12:01:29;27.70;99.90
38239;DHT22;24035;48.900;9.188;2023-06-01T12:03:55;27.90;99.90
38239;DHT22;24035;48.900;9.188;2023-06-01T12:06:24;27.90;99.90
38239;DHT22;24035;48.900;9.188;2023-06-01T12:08:54;27.70;99.90
38239;DHT22;24035;48.900;9.188;2023-06-01T12:11:25;27.80;99.90
38239;DHT22;24035;48.900;9.188;2023-06-01T12:13:54;27.60;99.90
38239;DHT22;24035;48.900;9.188;2023-06-01T12:16:21;27.10;99.90
38239;DHT22;24035;48.900;9.188;2023-06-01T12:18:47;27.30;99.90
38239;DHT22;24035;48.900;9.188;2023-06-01T12:21:13;27.90;99.90
38239;DHT22;24035;48.900;9.188;2023-06-01T12:23:39;28.20;99.90
38239;DHT22;24035;48.900;9.188;2023-06-01T12:26:05;27.70;99.90
38239;DHT22;24035;48.900;9.188;2023-06-01T12:28:52;27.40;99.90
38239;DHT22;24035;48.900;9.188;2023-06-01T12:31:20;27.40;99.90
38239;DHT22;24035;48.900;9.188;2023-06-01T12:33:46;27.60;99.90
38239;DHT22;24035;48.900;9.188;2023-06-01T12:36:34;27.30;99.90
38239;DHT22;24035;48.900;9.188;2023-06-01T12:39:02;27.00;99.90
38239;DHT22;24035;48.900;9.188;2023-06-01T12:41:29;27.60;99.90
38239;DHT22;24035;48.900;9.188;2023-06-01T12:43:56;28.00;99.90
38239;DHT22;24035;48.900;9.188;2023-06-01T12:46:24;28.50;99.90
38239;DHT22;24035;48.900;9.188;2023-06-01T12:48:52;28.90;99.90
38239;DHT22;24035;48.900;9.188;2023-06-01T12:51:19;28.60;99.90
38239;DHT22;24035;48.900;9.188;2023-06-01T12:53:47;28.00;99.90
38239;DHT22;24035;48.900;9.188;2023-06-01T12:56:13;28.00;99.90
38239;DHT22;24035;48.900;9.188;2023-06-01T12:58:39;28.20;99.90
38239;DHT22;24035;48.900;9.188;2023-06-01T13:01:05;27.40;99.90
38239;DHT22;24035;48.900;9.188;2023-06-01T13:03:31;27.60;99.90
38239;DHT22;24035;48.900;9.188;2023-06-01T13:05:57;27.90;99.90
38239;DHT22;24035;48.900;9.188;2023-06-01T13:08:23;28.70;99.90
38239;DHT22;24035;48.900;9.188;2023-06-01T13:10:49;28.70;99.90
38239;DHT22;24035;48.900;9.188;2023-06-01T13:13:16;29.00;99.90
38239;DHT22;24035;48.900;9.188;2023-06-01T13:15:42;29.20;99.90
38239;DHT22;24035;48.900;9.188;2023-06-01T13:18:08;28.70;99.90
38239;DHT22;24035;48.900;9.188;2023-06-01T13:20:34;28.30;99.90
38239;DHT22;24035;48.900;9.188;2023-06-01T13:23:00;28.10;99.90
38239;DHT22;24035;48.900;9.188;2023-06-01T13:25:26;28.80;99.90
38239;DHT22;24035;48.900;9.188;2023-06-01T13:27:52;29.00;99.90
38239;DHT22;24035;48.900;9.188;2023-06-01T13:30:18;28.90;99.90
38239;DHT22;24035;48.900;9.188;2023-06-01T13:32:44;28.90;99.90
38239;DHT22;24035;48.900;9.188;2023-06-01T13:35:10;29.30;99.90
38239;DHT22;24035;48.900;9.188;2023-06-01T13:37:37;29.70;99.90
38239;DHT22;24035;48.900;9.188;2023-06-01T13:40:03;29.90;99.90
38239;DHT22;24035;48.900;9.188;2023-06-01T13:42:33;30.30;99.90
38239;DHT22;24035;48.900;9.188;2023-06-01T13:44:59;30.40;99.90
38239;DHT22;24035;48.900;9.188;2023-06-01T13:47:25;30.90;99.90
38239;DHT22;24035;48.900;9.188;2023-06-01T13:49:51;30.90;99.90
38239;DHT22;24035;48.900;9.188;2023-06-01T13:52:18;30.10;99.90
38239;DHT22;24035;48.900;9.188;2023-06-01T13:54:44;30.10;99.90
38239;DHT22;24035;48.900;9.188;2023-06-01T13:57:10;31.10;99.90
38239;DHT22;24035;48.900;9.188;2023-06-01T13:59:36;31.90;99.90
38239;DHT22;24035;48.900;9.188;2023-06-01T14:02:03;31.80;99.90
38239;DHT22;24035;48.900;9.188;2023-06-01T14:04:30;30.50;99.90
38239;DHT22;24035;48.900;9.188;2023-06-01T14:06:55;30.10;99.90
38239;DHT22;24035;48.900;9.188;2023-06-01T14:09:21;30.30;99.90
38239;DHT22;24035;48.900;9.188;2023-06-01T14:11:48;30.30;99.90
38239;DHT22;24035;48.900;9.188;2023-06-01T14:14:16;30.80;99.90
38239;DHT22;24035;48.900;9.188;2023-06-01T14:16:42;32.10;99.90
38239;DHT22;24035;48.900;9.188;2023-06-01T14:19:08;32.30;99.90
38239;DHT22;24035;48.900;9.188;2023-06-01T14:21:33;31.50;99.90
38239;DHT22;24035;48.900;9.188;2023-06-01T14:24:01;32.00;99.90
38239;DHT22;24035;48.900;9.188;2023-06-01T14:26:27;33.40;99.90
38239;DHT22;24035;48.900;9.188;2023-06-01T14:28:53;33.00;99.90
38239;DHT22;24035;48.900;9.188;2023-06-01T14:31:19;31.70;99.90
38239;DHT22;24035;48.900;9.188;2023-06-01T14:33:46;31.10;99.90
38239;DHT22;24035;48.900;9.188;2023-06-01T14:36:12;31.10;99.90
38239;DHT22;24035;48.900;9.188;2023-06-01T14:38:38;31.30;99.90
38239;DHT22;24035;48.900;9.188;2023-06-01T14:41:03;32.30;99.90
38239;DHT22;24035;48.900;9.188;2023-06-01T14:43:29;31.90;99.90
38239;DHT22;24035;48.900;9.188;2023-06-01T14:45:58;30.80;99.90
38239;DHT22;24035;48.900;9.188;2023-06-01T14:48:24;30.80;99.90
38239;DHT22;24035;48.900;9.188;2023-06-01T14:50:49;32.20;99.90
38239;DHT22;24035;48.900;9.188;2023-06-01T14:53:15;33.10;99.90
38239;DHT22;24035;48.900;9.188;2023-06-01T14:55:41;33.50;99.90
38239;DHT22;24035;48.900;9.188;2023-06-01T14:58:08;33.50;99.90
38239;DHT22;24035;48.900;9.188;2023-06-01T15:00:35;33.20;99.90
38239;DHT22;24035;48.900;9.188;2023-06-01T15:03:01;32.50;99.90
38239;DHT22;24035;48.900;9.188;2023-06-01T15:05:27;32.80;99.90
38239;DHT22;24035;48.900;9.188;2023-06-01T15:07:53;31.30;99.90
38239;DHT22;24035;48.900;9.188;2023-06-01T15:10:18;30.60;99.90
38239;DHT22;24035;48.900;9.188;2023-06-01T15:12:44;30.20;99.90
38239;DHT22;24035;48.900;9.188;2023-06-01T15:15:10;30.40;99.90
38239;DHT22;24035;48.900;9.188;2023-06-01T15:17:35;31.00;99.90
38239;DHT22;24035;48.900;9.188;2023-06-01T15:20:01;31.20;99.90
38239;DHT22;24035;48.900;9.188;2023-06-01T15:22:27;32.50;99.90
38239;DHT22;24035;48.900;9.188;2023-06-01T15:24:53;31.30;99.90
38239;DHT22;24035;48.900;9.188;2023-06-01T15:27:18;31.10;99.90
38239;DHT22;24035;48.900;9.188;2023-06-01T15:29:45;31.70;99.90
38239;DHT22;24035;48.900;9.188;2023-06-01T15:32:11;33.00;99.90
38239;DHT22;24035;48.900;9.188;2023-06-01T15:34:37;33.70;99.90
38239;DHT22;24035;48.900;9.188;2023-06-01T15:37:07;33.50;99.90
38239;DHT22;24035;48.900;9.188;2023-06-01T15:39:37;32.30;99.90
38239;DHT22;24035;48.900;9.188;2023-06-01T15:42:07;30.90;99.90
38239;DHT22;24035;48.900;9.188;2023-06-01T15:44:33;30.60;99.90
38239;DHT22;24035;48.900;9.188;2023-06-01T15:47:00;30.60;99.90
38239;DHT22;24035;48.900;9.188;2023-06-01T15:49:27;30.60;99.90
38239;DHT22;24035;48.900;9.188;2023-06-01T15:51:53;31.10;99.90
38239;DHT22;24035;48.900;9.188;2023-06-01T15:54:19;31.20;99.90
38239;DHT22;24035;48.900;9.188;2023-06-01T15:56:44;31.10;99.90
38239;DHT22;24035;48.900;9.188;2023-06-01T15:59:10;31.30;99.90
38239;DHT22;24035;48.900;9.188;2023-06-01T16:01:36;31.30;99.90
38239;DHT22;24035;48.900;9.188;2023-06-01T16:04:01;31.80;99.90
38239;DHT22;24035;48.900;9.188;2023-06-01T16:06:27;32.10;99.90
38239;DHT22;24035;48.900;9.188;2023-06-01T16:08:53;32.60;99.90